createdAt,value
2019-04-16T00:00:56.318Z,95471.5
2019-04-16T00:01:58.824Z,95469.8
2019-04-16T00:03:00.986Z,95470.3
2019-04-16T00:04:03.448Z,95469.7
2019-04-16T00:05:05.884Z,95470
2019-04-16T00:06:08.030Z,95469.7
2019-04-16T00:07:10.454Z,95468.8
2019-04-16T00:09:17.853Z,95470.3
2019-04-16T00:10:19.995Z,95470.6
2019-04-16T00:11:22.443Z,95466.8
2019-04-16T00:12:24.034Z,95469.4
2019-04-16T00:13:26.450Z,95469.7
2019-04-16T00:14:28.903Z,95465
2019-04-16T00:15:31.336Z,95469
2019-04-16T00:16:33.465Z,95467.7
2019-04-16T00:17:35.615Z,95467.6
2019-04-16T00:18:37.764Z,95467.9
2019-04-16T00:19:39.643Z,95468
2019-04-16T00:20:42.084Z,95462.7
2019-04-16T00:21:44.244Z,95462
2019-04-16T00:22:46.722Z,95462.3
2019-04-16T00:23:49.156Z,95461.4
2019-04-16T00:24:51.292Z,95457
2019-04-16T00:28:03.746Z,95457.6
2019-04-16T00:29:06.031Z,95458.9
2019-04-16T00:30:08.452Z,95458.8
2019-04-16T00:31:10.877Z,95461.5
2019-04-16T00:32:13.311Z,95459.4
2019-04-16T00:33:15.728Z,95458
2019-04-16T00:34:17.609Z,95455
2019-04-16T00:35:19.765Z,95452.4
2019-04-16T00:36:22.184Z,95452.9
2019-04-16T00:37:24.621Z,95452.9
2019-04-16T00:39:32.971Z,95451
2019-04-16T00:40:35.402Z,95442.6
2019-04-16T00:41:37.544Z,95457.9
2019-04-16T00:42:39.708Z,95451.9
2019-04-16T00:44:47.103Z,95448.7
2019-04-16T00:45:49.528Z,95447.7
2019-04-16T00:46:51.655Z,95442.5
2019-04-16T00:47:54.082Z,95445.6
2019-04-16T00:48:56.252Z,95444.3
2019-04-16T00:50:00.959Z,95439.7
2019-04-16T00:51:03.151Z,95440
2019-04-16T00:53:10.703Z,95443.9
2019-04-16T00:54:13.123Z,95439.2
2019-04-16T00:55:16.220Z,95438.1
2019-04-16T00:56:18.645Z,95439.2
2019-04-16T00:57:21.064Z,95442
2019-04-16T00:58:23.233Z,95442.3
2019-04-16T00:59:26.145Z,95447.5
2019-04-16T01:01:33.542Z,95440.5
2019-04-16T01:02:35.694Z,95450.4
2019-04-16T01:03:38.132Z,95445.4
2019-04-16T01:04:40.551Z,95447.5
2019-04-16T01:05:42.975Z,95443.8
2019-04-16T01:06:45.115Z,95449.5
2019-04-16T01:07:47.263Z,95454
2019-04-16T01:09:54.385Z,95451.9
2019-04-16T01:10:56.587Z,95453.6
2019-04-16T01:11:58.691Z,95454.4
2019-04-16T01:13:01.154Z,95448.2
2019-04-16T01:14:03.033Z,95452.8
2019-04-16T01:15:05.459Z,95450.6
2019-04-16T01:16:08.043Z,95452.1
2019-04-16T01:17:10.241Z,95453.1
2019-04-16T01:18:12.684Z,95454.7
2019-04-16T01:19:14.811Z,95452.9
2019-04-16T01:20:16.949Z,95456.1
2019-04-16T01:21:19.367Z,95458.5
2019-04-16T01:22:21.790Z,95459.5
2019-04-16T01:23:24.202Z,95455.6
2019-04-16T01:24:26.629Z,95453.9
2019-04-16T01:25:29.053Z,95457.5
2019-04-16T01:26:31.469Z,95457
2019-04-16T01:27:33.624Z,95454.2
2019-04-16T01:28:35.774Z,95456.8
2019-04-16T01:29:38.202Z,95458.4
2019-04-16T01:30:40.333Z,95456.2
2019-04-16T01:31:42.755Z,95458.1
2019-04-16T01:32:45.176Z,95457.6
2019-04-16T01:33:48.690Z,95456.8
2019-04-16T01:34:51.110Z,95455.8
2019-04-16T01:35:53.934Z,95455.7
2019-04-16T01:36:56.466Z,95456.3
2019-04-16T01:37:59.089Z,95452.7
2019-04-16T01:40:06.483Z,95453.7
2019-04-16T01:41:09.167Z,95456
2019-04-16T01:42:11.659Z,95458.3
2019-04-16T01:43:14.087Z,95454.5
2019-04-16T01:44:16.220Z,95454.7
2019-04-16T01:45:18.366Z,95456.3
2019-04-16T01:46:20.791Z,95455.8
2019-04-16T01:47:23.207Z,95454.4
2019-04-16T01:48:25.619Z,95453.8
2019-04-16T01:49:28.044Z,95451.9
2019-04-16T01:50:30.461Z,95456.3
2019-04-16T01:51:32.870Z,95459.3
2019-04-16T01:52:35.294Z,95457.7
2019-04-16T01:53:37.720Z,95460.2
2019-04-16T01:54:40.136Z,95458.2
2019-04-16T01:55:43.708Z,95456.3
2019-04-16T01:56:46.132Z,95457.7
2019-04-16T01:57:48.286Z,95455.9
2019-04-16T01:58:50.693Z,95457.2
2019-04-16T01:59:52.845Z,95456.8
2019-04-16T02:00:54.978Z,95457.6
2019-04-16T02:01:57.123Z,95456.9
2019-04-16T02:02:59.544Z,95455
2019-04-16T02:04:01.690Z,95451.3
2019-04-16T02:05:03.843Z,95455
2019-04-16T02:06:05.971Z,95454.5
2019-04-16T02:07:08.093Z,95451.9
2019-04-16T02:08:10.298Z,95455.3
2019-04-16T02:10:16.883Z,95450.6
2019-04-16T02:11:19.309Z,95448.9
2019-04-16T02:12:21.737Z,95451.2
2019-04-16T02:13:24.157Z,95446.2
2019-04-16T02:14:26.310Z,95446.7
2019-04-16T02:15:27.908Z,95440.2
2019-04-16T02:16:30.054Z,95441.3
2019-04-16T02:17:32.487Z,95436.7
2019-04-16T02:18:34.910Z,95440.2
2019-04-16T02:19:37.064Z,95438.5
2019-04-16T02:20:40.724Z,95436
2019-04-16T02:21:43.034Z,95442.5
2019-04-16T02:22:46.817Z,95440.5
2019-04-16T02:23:49.237Z,95438.9
2019-04-16T02:24:51.675Z,95439.6
2019-04-16T02:25:53.809Z,95443.6
2019-04-16T02:26:56.383Z,95440.5
2019-04-16T02:27:59.283Z,95442
2019-04-16T02:29:01.777Z,95446.8
2019-04-16T02:32:14.209Z,95439.7
2019-04-16T02:33:16.656Z,95440.7
2019-04-16T02:34:19.096Z,95444
2019-04-16T02:35:21.511Z,95446.4
2019-04-16T02:36:23.930Z,95450.1
2019-04-16T02:37:26.351Z,95452.8
2019-04-16T02:38:28.774Z,95450.8
2019-04-16T02:40:36.187Z,95455.2
2019-04-16T02:41:38.604Z,95459.2
2019-04-16T02:42:41.026Z,95460.5
2019-04-16T02:43:43.440Z,95459
2019-04-16T02:46:56.533Z,95464.9
2019-04-16T02:47:58.942Z,95466
2019-04-16T02:49:02.650Z,95467.2
2019-04-16T02:50:05.156Z,95469.4
2019-04-16T02:53:17.539Z,95468.7
2019-04-16T02:54:24.439Z,95469
2019-04-16T02:55:31.348Z,95468.8
2019-04-16T02:56:33.860Z,95471.2
2019-04-16T02:57:36.285Z,95468.7
2019-04-16T02:58:38.721Z,95466.3
2019-04-16T03:02:56.061Z,95469.8
2019-04-16T03:03:58.479Z,95468.4
2019-04-16T03:05:00.905Z,95469.3
2019-04-16T03:06:03.672Z,95470.8
2019-04-16T03:07:06.222Z,95470.2
2019-04-16T03:08:08.653Z,95476.1
2019-04-16T03:09:11.517Z,95472
2019-04-16T03:10:15.333Z,95474.4
2019-04-16T03:11:19.163Z,95476.7
2019-04-16T03:12:22.995Z,95474.1
2019-04-16T03:13:25.521Z,95475.5
2019-04-16T03:16:40.024Z,95472.4
2019-04-16T03:17:44.723Z,95475.7
2019-04-16T03:19:53.383Z,95475.1
2019-04-16T03:20:57.707Z,95471.8
2019-04-16T03:23:08.063Z,95470.6
2019-04-16T03:24:11.435Z,95474.7
2019-04-16T03:25:15.560Z,95467.9
2019-04-16T03:26:19.548Z,95467.6
2019-04-16T03:27:24.049Z,95463.6
2019-04-16T03:29:32.568Z,95464.3
2019-04-16T03:31:39.984Z,95464.1
2019-04-16T03:32:41.846Z,95459.6
2019-04-16T03:41:18.571Z,95457
2019-04-16T03:42:20.435Z,95455.5
2019-04-16T03:43:22.891Z,95450.9
2019-04-16T03:44:25.315Z,95453.1
2019-04-16T03:45:27.732Z,95453.5
2019-04-16T03:46:30.173Z,95457.1
2019-04-16T03:47:32.595Z,95452.9
2019-04-16T03:48:34.743Z,95450.4
2019-04-16T03:49:36.887Z,95448.9
2019-04-16T03:50:39.301Z,95446.6
2019-04-16T03:51:41.436Z,95446.2
2019-04-16T03:56:00.135Z,95454.6
2019-04-16T03:57:03.876Z,95456.6
2019-04-16T03:58:08.848Z,95453.7
2019-04-16T03:59:13.729Z,95456.9
2019-04-16T04:00:16.039Z,95458.3
2019-04-16T04:01:18.470Z,95456.8
2019-04-16T04:04:31.484Z,95465.1
2019-04-16T04:11:01.832Z,95461.9
2019-04-16T04:12:04.253Z,95460
2019-04-16T04:13:06.560Z,95461.8
2019-04-16T04:14:09.212Z,95460.3
2019-04-16T04:15:11.608Z,95464.4
2019-04-16T04:16:14.211Z,95462.6
2019-04-16T04:17:16.856Z,95460.6
2019-04-16T04:18:19.349Z,95464.7
2019-04-16T04:19:21.767Z,95463.8
2019-04-16T04:20:23.908Z,95464.5
2019-04-16T04:21:26.319Z,95466.9
2019-04-16T04:22:28.754Z,95467.4
2019-04-16T04:23:31.173Z,95462.6
2019-04-16T04:24:33.704Z,95464.9
2019-04-16T04:32:05.897Z,95470.6
2019-04-16T04:39:38.224Z,95473.4
2019-04-16T04:44:06.616Z,95478.4
2019-04-16T04:45:11.834Z,95481.7
2019-04-16T04:46:16.685Z,95485.6
2019-04-16T04:48:25.640Z,95487.5
2019-04-16T04:55:58.803Z,95494.1
2019-04-16T04:57:01.695Z,95495.7
2019-04-16T04:58:04.940Z,95497.3
2019-04-16T04:59:07.584Z,95498.5
2019-04-16T05:00:11.226Z,95502.6
2019-04-16T05:01:15.396Z,95501.7
2019-04-16T05:02:17.543Z,95508.7
2019-04-16T05:03:20.217Z,95509.5
2019-04-16T05:04:22.871Z,95507.6
2019-04-16T05:05:27.176Z,95509
2019-04-16T05:06:29.596Z,95504.3
2019-04-16T05:07:32.022Z,95504.9
2019-04-16T05:08:34.455Z,95501.8
2019-04-16T05:09:37.985Z,95504.6
2019-04-16T05:13:58.379Z,95500.8
2019-04-16T05:15:03.716Z,95499.8
2019-04-16T05:16:08.556Z,95500
2019-04-16T05:17:10.955Z,95498.2
2019-04-16T05:18:13.674Z,95503.9
2019-04-16T05:19:17.149Z,95506
2019-04-16T05:20:19.625Z,95506
2019-04-16T05:21:22.208Z,95508.9
2019-04-16T05:22:24.639Z,95506.8
2019-04-16T05:23:27.333Z,95507.6
2019-04-16T05:24:31.234Z,95510.3
2019-04-16T05:25:35.625Z,95511.2
2019-04-16T05:26:38.813Z,95510.4
2019-04-16T05:27:42.864Z,95507.3
2019-04-16T05:28:46.994Z,95504
2019-04-16T05:29:50.670Z,95506
2019-04-16T05:30:54.214Z,95510.3
2019-04-16T05:34:08.085Z,95499.8
2019-04-16T05:35:12.176Z,95503.8
2019-04-16T05:36:16.497Z,95499
2019-04-16T05:38:25.760Z,95502.7
2019-04-16T05:39:29.841Z,95506.6
2019-04-16T05:41:36.967Z,95509
2019-04-16T05:42:39.478Z,95504.5
2019-04-16T05:43:41.372Z,95505.8
2019-04-16T05:44:43.811Z,95510.6
2019-04-16T05:45:45.962Z,95512.3
2019-04-16T05:46:48.243Z,95509.5
2019-04-16T05:47:51.107Z,95514.1
2019-04-16T05:48:55.647Z,95512.6
2019-04-16T05:50:00.076Z,95515.1
2019-04-16T05:51:02.232Z,95515.9
2019-04-16T05:52:05.581Z,95514.7
2019-04-16T05:54:14.638Z,95512.6
2019-04-16T05:57:28.780Z,95507.4
2019-04-16T05:58:32.578Z,95511.4
2019-04-16T05:59:35.863Z,95512.6
2019-04-16T06:04:58.205Z,95517
2019-04-16T06:06:01.387Z,95516.9
2019-04-16T06:08:11.308Z,95515.5
2019-04-16T06:09:15.255Z,95518.2
2019-04-16T06:12:27.705Z,95520.4
2019-04-16T06:13:29.853Z,95519.3
2019-04-16T06:14:32.290Z,95516.1
2019-04-16T06:16:39.409Z,95517.1
2019-04-16T06:17:41.557Z,95513.2
2019-04-16T06:18:43.978Z,95514
2019-04-16T06:21:58.596Z,95514.9
2019-04-16T06:23:02.904Z,95513.4
2019-04-16T06:24:05.679Z,95515.5
2019-04-16T06:27:17.793Z,95515.5
2019-04-16T06:28:19.765Z,95519.4
2019-04-16T06:29:21.919Z,95513.8
2019-04-16T06:30:24.629Z,95522.8
2019-04-16T06:31:26.777Z,95521.4
2019-04-16T06:32:29.941Z,95521.2
2019-04-16T06:33:32.374Z,95515.6
2019-04-16T06:34:34.798Z,95516.1
2019-04-16T06:36:42.212Z,95515.2
2019-04-16T06:38:49.339Z,95520.5
2019-04-16T06:39:51.763Z,95524.1
2019-04-16T06:40:53.924Z,95523.9
2019-04-16T06:41:56.350Z,95526.4
2019-04-16T06:42:58.782Z,95525.6
2019-04-16T06:45:07.365Z,95519.2
2019-04-16T06:46:10.844Z,95525.4
2019-04-16T06:47:13.076Z,95520.7
2019-04-16T06:48:15.737Z,95525.7
2019-04-16T06:49:19.958Z,95526.4
2019-04-16T06:51:27.354Z,95526.9
2019-04-16T06:52:29.820Z,95528.2
2019-04-16T06:53:32.403Z,95523.8
2019-04-16T06:54:35.377Z,95521.3
2019-04-16T06:55:37.793Z,95519.6
2019-04-16T06:57:45.105Z,95520.4
2019-04-16T06:59:52.516Z,95526.1
2019-04-16T07:00:54.958Z,95522.5
2019-04-16T07:01:57.448Z,95527.7
2019-04-16T07:05:09.823Z,95528.2
2019-04-16T07:06:11.699Z,95529.1
2019-04-16T07:07:14.126Z,95525.6
2019-04-16T07:11:31.872Z,95525.8
2019-04-16T07:15:49.289Z,95524.1
2019-04-16T07:16:51.717Z,95524.8
2019-04-16T07:17:54.158Z,95527.6
2019-04-16T07:18:56.600Z,95526.7
2019-04-16T07:19:58.457Z,95528
2019-04-16T07:21:00.891Z,95519.5
2019-04-16T07:22:03.317Z,95525.5
2019-04-16T07:23:05.483Z,95522.6
2019-04-16T07:24:08.087Z,95518.7
2019-04-16T07:25:10.456Z,95522
2019-04-16T07:31:39.135Z,95517.9
2019-04-16T07:32:41.283Z,95519.1
2019-04-16T07:33:43.497Z,95518.4
2019-04-16T07:34:45.950Z,95515.8
2019-04-16T07:35:48.135Z,95519.6
2019-04-16T07:36:50.567Z,95517.2
2019-04-16T07:37:53.643Z,95520.1
2019-04-16T07:38:55.791Z,95515.5
2019-04-16T07:39:58.084Z,95520.7
2019-04-16T07:41:00.521Z,95524.9
2019-04-16T07:43:07.921Z,95521.9
2019-04-16T07:44:12.595Z,95525.9
2019-04-16T07:45:15.020Z,95520.5
2019-04-16T07:46:17.176Z,95524
2019-04-16T07:48:25.068Z,95522.8
2019-04-16T07:49:28.554Z,95523.8
2019-04-16T07:51:38.059Z,95523.6
2019-04-16T07:54:50.453Z,95524.8
2019-04-16T07:55:52.888Z,95529.5
2019-04-16T07:56:55.101Z,95528.4
2019-04-16T07:57:57.517Z,95528.5
2019-04-16T08:02:17.531Z,95534.6
2019-04-16T08:03:23.512Z,95530.4
2019-04-16T08:05:32.177Z,95532.4
2019-04-16T08:06:34.601Z,95528.8
2019-04-16T08:07:37.025Z,95531.2
2019-04-16T08:08:39.193Z,95527.3
2019-04-16T08:09:41.079Z,95527.1
2019-04-16T08:10:43.490Z,95528.7
2019-04-16T08:11:45.925Z,95526.2
2019-04-16T08:12:47.798Z,95526.8
2019-04-16T08:13:50.246Z,95531.6
2019-04-16T08:14:52.114Z,95530.5
2019-04-16T08:16:59.514Z,95531.3
2019-04-16T08:18:01.941Z,95532.4
2019-04-16T08:19:04.736Z,95534.3
2019-04-16T08:20:06.932Z,95532.3
2019-04-16T08:23:21.714Z,95536.5
2019-04-16T08:26:33.787Z,95537.5
2019-04-16T08:27:35.910Z,95535.4
2019-04-16T08:28:38.513Z,95535.5
2019-04-16T08:29:41.036Z,95539.8
2019-04-16T08:30:43.497Z,95532.3
2019-04-16T08:31:46.353Z,95536.5
2019-04-16T08:33:53.461Z,95539.2
2019-04-16T08:34:55.661Z,95538.6
2019-04-16T08:35:58.123Z,95538.9
2019-04-16T08:37:00.703Z,95542.3
2019-04-16T08:38:03.331Z,95540.6
2019-04-16T08:46:42.681Z,95536.7
2019-04-16T08:49:56.710Z,95543.2
2019-04-16T08:51:00.296Z,95539.3
2019-04-16T08:56:27.112Z,95542.9
2019-04-16T09:09:26.395Z,95543.2
2019-04-16T09:14:48.453Z,95546.1
2019-04-16T09:15:55.335Z,95541.5
2019-04-16T09:16:58.200Z,95535.3
2019-04-16T09:18:00.848Z,95543.5
2019-04-16T09:19:03.062Z,95542.1
2019-04-16T09:20:07.938Z,95549.4
2019-04-16T09:21:12.654Z,95546.2
2019-04-16T09:23:22.730Z,95547.6
2019-04-16T09:24:25.962Z,95545.9
2019-04-16T09:25:28.115Z,95543.5
2019-04-16T09:26:30.295Z,95542.6
2019-04-16T09:28:37.707Z,95539
2019-04-16T09:29:41.461Z,95541.5
2019-04-16T09:36:11.274Z,95536.8
2019-04-16T09:37:13.150Z,95535.6
2019-04-16T09:38:15.577Z,95537.1
2019-04-16T09:40:23.596Z,95530.4
2019-04-16T09:41:25.736Z,95532.6
2019-04-16T09:42:27.879Z,95531.1
2019-04-16T09:43:30.305Z,95532.7
2019-04-16T09:45:39.849Z,95527.5
2019-04-16T09:47:47.257Z,95523.7
2019-04-16T09:48:51.552Z,95522.4
2019-04-16T09:49:53.987Z,95520.9
2019-04-16T09:50:56.418Z,95521.5
2019-04-16T09:51:58.835Z,95521
2019-04-16T09:53:03.422Z,95516.5
2019-04-16T09:54:05.566Z,95515.5
2019-04-16T09:55:07.988Z,95517.3
2019-04-16T09:56:10.404Z,95519.6
2019-04-16T09:57:12.832Z,95512.7
2019-04-16T09:58:15.625Z,95517.5
2019-04-16T09:59:18.561Z,95515.4
2019-04-16T10:00:22.494Z,95511.8
2019-04-16T10:01:25.113Z,95513.3
2019-04-16T10:02:27.721Z,95512.9
2019-04-16T10:03:30.449Z,95516.7
2019-04-16T10:04:32.915Z,95514.4
2019-04-16T10:05:35.365Z,95510
2019-04-16T10:06:37.813Z,95514.6
2019-04-16T10:07:42.215Z,95512.1
2019-04-16T10:10:54.592Z,95513.9
2019-04-16T10:11:58.794Z,95510.2
2019-04-16T10:13:01.254Z,95510.5
2019-04-16T10:14:03.684Z,95503.1
2019-04-16T10:15:06.161Z,95499.5
2019-04-16T10:16:08.705Z,95501.6
2019-04-16T10:17:11.139Z,95502.7
2019-04-16T10:18:13.495Z,95502.8
2019-04-16T10:19:16.161Z,95501.3
2019-04-16T10:20:18.342Z,95502.4
2019-04-16T10:21:22.147Z,95502.9
2019-04-16T10:22:24.640Z,95496.4
2019-04-16T10:23:27.128Z,95497.8
2019-04-16T10:24:29.561Z,95499.3
2019-04-16T10:26:36.963Z,95499.6
2019-04-16T10:27:39.458Z,95500.8
2019-04-16T10:28:41.629Z,95499
2019-04-16T10:29:44.066Z,95494.1
2019-04-16T10:30:46.578Z,95493.3
2019-04-16T10:31:49.059Z,95499.6
2019-04-16T10:32:51.475Z,95497.1
2019-04-16T10:33:53.945Z,95502.2
2019-04-16T10:34:56.135Z,95506
2019-04-16T10:37:04.556Z,95502.2
2019-04-16T10:38:07.052Z,95497.3
2019-04-16T10:39:09.506Z,95494.8
2019-04-16T10:40:11.664Z,95497.6
2019-04-16T10:41:14.318Z,95491.1
2019-04-16T10:42:16.861Z,95489
2019-04-16T10:43:19.328Z,95492.6
2019-04-16T10:44:21.940Z,95491.9
2019-04-16T10:45:24.126Z,95492.5
2019-04-16T10:46:26.564Z,95490
2019-04-16T10:47:28.980Z,95494.6
2019-04-16T10:48:31.200Z,95494.7
2019-04-16T10:49:33.619Z,95487
2019-04-16T10:50:35.792Z,95490
2019-04-16T10:51:37.979Z,95484.4
2019-04-16T10:52:40.393Z,95483.9
2019-04-16T10:53:42.899Z,95485.1
2019-04-16T10:54:45.113Z,95483.3
2019-04-16T10:55:47.720Z,95482.8
2019-04-16T10:56:50.174Z,95484.1
2019-04-16T10:57:52.866Z,95474
2019-04-16T10:58:55.394Z,95479.8
2019-04-16T10:59:57.892Z,95484
2019-04-16T11:01:00.262Z,95479.6
2019-04-16T11:02:02.734Z,95482.6
2019-04-16T11:03:05.233Z,95475
2019-04-16T11:04:09.610Z,95473.2
2019-04-16T11:05:12.053Z,95475.8
2019-04-16T11:06:18.987Z,95473
2019-04-16T11:07:21.161Z,95472.5
2019-04-16T11:08:23.717Z,95470.6
2019-04-16T11:09:25.901Z,95471.2
2019-04-16T11:10:28.402Z,95467.8
2019-04-16T11:11:30.967Z,95469
2019-04-16T11:12:33.391Z,95467.2
2019-04-16T11:13:35.966Z,95470.9
2019-04-16T11:14:38.493Z,95476
2019-04-16T11:15:40.735Z,95477.8
2019-04-16T11:16:42.923Z,95470
2019-04-16T11:17:45.394Z,95467.3
2019-04-16T11:18:47.933Z,95471.8
2019-04-16T11:20:55.433Z,95474
2019-04-16T11:24:09.582Z,95473.3
2019-04-16T11:25:11.908Z,95470.8
2019-04-16T11:26:14.346Z,95468.6
2019-04-16T11:27:16.618Z,95466.4
2019-04-16T11:28:19.295Z,95467.7
2019-04-16T11:29:21.713Z,95469.3
2019-04-16T11:30:24.147Z,95465.4
2019-04-16T11:31:26.390Z,95465.6
2019-04-16T11:32:28.879Z,95469.6
2019-04-16T11:33:31.364Z,95468
2019-04-16T11:34:33.809Z,95466.9
2019-04-16T11:35:36.266Z,95463.6
2019-04-16T11:36:38.422Z,95462.1
2019-04-16T11:38:45.827Z,95466.9
2019-04-16T11:39:48.254Z,95465.5
2019-04-16T11:40:50.863Z,95464.6
2019-04-16T11:41:53.346Z,95462.3
2019-04-16T11:42:55.888Z,95463
2019-04-16T11:44:13.479Z,95462.3
2019-04-16T11:45:05.197Z,95460.5
2019-04-16T11:46:07.670Z,95460.4
2019-04-16T11:47:10.112Z,95455.8
2019-04-16T11:48:12.923Z,95461.7
2019-04-16T11:49:15.657Z,95458.5
2019-04-16T11:50:18.645Z,95459.5
2019-04-16T11:51:21.187Z,95463.4
2019-04-16T11:52:23.383Z,95465.6
2019-04-16T11:53:25.856Z,95458.6
2019-04-16T11:54:28.121Z,95462
2019-04-16T11:55:30.535Z,95458.2
2019-04-16T11:56:33.006Z,95462.3
2019-04-16T11:57:35.624Z,95457.1
2019-04-16T11:58:37.527Z,95458.6
2019-04-16T11:59:39.847Z,95458.3
2019-04-16T12:00:42.428Z,95455.8
2019-04-16T12:01:44.995Z,95458
2019-04-16T12:02:47.160Z,95455.7
2019-04-16T12:03:49.619Z,95456.5
2019-04-16T12:05:57.548Z,95452.9
2019-04-16T12:06:59.692Z,95456.4
2019-04-16T12:08:02.478Z,95454.5
2019-04-16T12:09:04.924Z,95456.8
2019-04-16T12:10:07.460Z,95450.2
2019-04-16T12:11:10.241Z,95455
2019-04-16T12:12:13.311Z,95455.5
2019-04-16T12:13:15.821Z,95454.3
2019-04-16T12:15:23.325Z,95454
2019-04-16T12:16:26.610Z,95456.9
2019-04-16T12:17:29.119Z,95451.2
2019-04-16T12:18:33.592Z,95457
2019-04-16T12:19:35.789Z,95456.7
2019-04-16T12:20:38.002Z,95451.6
2019-04-16T12:21:40.428Z,95452.4
2019-04-16T12:22:42.984Z,95454.7
2019-04-16T12:23:45.462Z,95456
2019-04-16T12:24:47.949Z,95457.1
2019-04-16T12:25:50.437Z,95449.9
2019-04-16T12:26:52.692Z,95449.3
2019-04-16T12:27:55.136Z,95448.3
2019-04-16T12:28:57.670Z,95454.8
2019-04-16T12:30:00.135Z,95454
2019-04-16T12:31:02.926Z,95455
2019-04-16T12:32:07.186Z,95456
2019-04-16T12:34:17.358Z,95454.5
2019-04-16T12:35:19.831Z,95459.6
2019-04-16T12:36:22.374Z,95457.3
2019-04-16T12:37:24.588Z,95454.5
2019-04-16T12:38:27.112Z,95456.5
2019-04-16T12:39:29.619Z,95455.9
2019-04-16T12:40:32.099Z,95454
2019-04-16T12:41:34.391Z,95455.4
2019-04-16T12:43:41.834Z,95453.9
2019-04-16T12:45:48.955Z,95460
2019-04-16T12:46:56.088Z,95458.2
2019-04-16T12:49:03.457Z,95455
2019-04-16T12:50:06.194Z,95451.9
2019-04-16T12:51:08.964Z,95451.8
2019-04-16T12:53:16.868Z,95444
2019-04-16T12:54:19.337Z,95444.9
2019-04-16T12:56:26.791Z,95438.1
2019-04-16T12:57:29.342Z,95437.6
2019-04-16T12:58:31.512Z,95436
2019-04-16T12:59:33.935Z,95434.8
2019-04-16T13:00:36.074Z,95429.6
2019-04-16T13:01:38.734Z,95430.8
2019-04-16T13:04:53.853Z,95435.6
2019-04-16T13:05:56.279Z,95441.8
2019-04-16T13:06:58.701Z,95435.4
2019-04-16T13:08:01.456Z,95439.4
2019-04-16T13:09:04.244Z,95436.3
2019-04-16T13:10:06.712Z,95440.7
2019-04-16T13:11:10.493Z,95441.2
2019-04-16T13:12:12.927Z,95439.8
2019-04-16T13:13:15.349Z,95439.7
2019-04-16T13:14:17.517Z,95437.2
2019-04-16T13:15:19.942Z,95439.4
2019-04-16T13:16:21.817Z,95434.8
2019-04-16T13:17:24.237Z,95436.4
2019-04-16T13:18:26.648Z,95435.8
2019-04-16T13:19:29.070Z,95438.7
2019-04-16T13:20:31.674Z,95435.8
2019-04-16T13:21:34.105Z,95437.3
2019-04-16T13:22:36.531Z,95432.5
2019-04-16T13:23:38.955Z,95432.2
2019-04-16T13:24:41.454Z,95430.4
2019-04-16T13:25:43.601Z,95432.5
2019-04-16T13:26:46.035Z,95437.3
2019-04-16T13:31:04.800Z,95430.7
2019-04-16T13:32:07.225Z,95428
2019-04-16T13:33:10.017Z,95431.9
2019-04-16T13:34:12.178Z,95429.5
2019-04-16T13:35:14.813Z,95430.1
2019-04-16T13:36:17.265Z,95428.5
2019-04-16T13:37:19.694Z,95430.9
2019-04-16T13:38:21.843Z,95428.8
2019-04-16T13:39:24.260Z,95431.8
2019-04-16T13:40:26.693Z,95429.7
2019-04-16T13:41:29.137Z,95430.8
2019-04-16T13:42:31.585Z,95430
2019-04-16T13:45:43.683Z,95428.4
2019-04-16T13:46:46.116Z,95432
2019-04-16T13:47:48.565Z,95429
2019-04-16T13:51:05.563Z,95428.4
2019-04-16T13:52:08.165Z,95426
2019-04-16T13:53:10.794Z,95429.4
2019-04-16T13:54:13.437Z,95426.4
2019-04-16T13:55:15.593Z,95429.2
2019-04-16T13:56:19.775Z,95430.2
2019-04-16T13:57:22.195Z,95435.9
2019-04-16T13:58:24.350Z,95429
2019-04-16T14:02:42.194Z,95425.9
2019-04-16T14:03:44.636Z,95422.6
2019-04-16T14:04:47.060Z,95431.1
2019-04-16T14:05:49.485Z,95425.1
2019-04-16T14:06:51.640Z,95426
2019-04-16T14:07:53.786Z,95427.5
2019-04-16T14:08:56.216Z,95425.2
2019-04-16T14:09:58.376Z,95424.1
2019-04-16T14:11:01.157Z,95423
2019-04-16T14:12:03.344Z,95422.3
2019-04-16T14:13:06.096Z,95426.2
2019-04-16T14:14:09.774Z,95423.1
2019-04-16T14:15:12.200Z,95426.4
2019-04-16T14:16:14.984Z,95424.3
2019-04-16T14:18:23.414Z,95425.1
2019-04-16T14:19:25.837Z,95425.4
2019-04-16T14:20:28.006Z,95430.9
2019-04-16T14:21:30.145Z,95428
2019-04-16T14:22:32.572Z,95429.5
2019-04-16T14:23:35.004Z,95426.9
2019-04-16T14:24:37.138Z,95424.8
2019-04-16T14:25:39.567Z,95426.5
2019-04-16T14:26:41.725Z,95425.6
2019-04-16T14:27:44.149Z,95431.2
2019-04-16T14:29:50.982Z,95431.4
2019-04-16T14:30:53.394Z,95436.3
2019-04-16T14:31:55.824Z,95431.5
2019-04-16T14:32:58.601Z,95429.2
2019-04-16T14:34:01.096Z,95432.3
2019-04-16T14:35:03.273Z,95431
2019-04-16T14:36:05.690Z,95431
2019-04-16T14:37:08.356Z,95428
2019-04-16T14:38:10.942Z,95432.8
2019-04-16T14:39:13.104Z,95431
2019-04-16T14:40:15.527Z,95426.7
2019-04-16T14:41:17.683Z,95430.8
2019-04-16T14:46:40.507Z,95429.3
2019-04-16T14:47:42.347Z,95428.5
2019-04-16T14:50:54.494Z,95426.3
2019-04-16T14:53:01.986Z,95430.8
2019-04-16T14:54:04.482Z,95431.5
2019-04-16T14:55:06.933Z,95431.4
2019-04-16T14:56:09.463Z,95433.9
2019-04-16T14:57:12.910Z,95436.9
2019-04-16T15:00:25.283Z,95444.5
2019-04-16T15:01:27.704Z,95441.8
2019-04-16T15:02:30.984Z,95442.3
2019-04-16T15:03:33.114Z,95447.6
2019-04-16T15:04:35.345Z,95445.1
2019-04-16T15:05:37.785Z,95441.3
2019-04-16T15:06:40.233Z,95444.3
2019-04-16T15:08:47.436Z,95444
2019-04-16T15:09:49.584Z,95445.1
2019-04-16T15:10:52.004Z,95445.8
2019-04-16T15:11:54.428Z,95449.3
2019-04-16T15:13:01.322Z,95442.7
2019-04-16T15:14:03.739Z,95442.3
2019-04-16T15:15:08.483Z,95442.5
2019-04-16T15:17:17.022Z,95441.2
2019-04-16T15:18:19.437Z,95441.9
2019-04-16T15:19:21.945Z,95447.7
2019-04-16T15:20:24.096Z,95449.5
2019-04-16T15:21:26.516Z,95449.5
2019-04-16T15:22:28.973Z,95449.5
2019-04-16T15:23:31.164Z,95451.5
2019-04-16T15:24:33.323Z,95446.9
2019-04-16T15:25:35.474Z,95450.4
2019-04-16T15:26:37.916Z,95449.2
2019-04-16T15:27:40.354Z,95450.8
2019-04-16T15:28:42.858Z,95450.8
2019-04-16T15:29:45.017Z,95454.2
2019-04-16T15:30:47.434Z,95448.6
2019-04-16T15:31:49.594Z,95455
2019-04-16T15:32:51.755Z,95455.1
2019-04-16T15:33:53.906Z,95457.6
2019-04-16T15:34:56.536Z,95456.8
2019-04-16T15:35:59.119Z,95459.8
2019-04-16T15:37:01.406Z,95459.8
2019-04-16T15:38:03.415Z,95457.6
2019-04-16T15:39:06.077Z,95458.4
2019-04-16T15:40:10.201Z,95458.8
2019-04-16T15:42:19.869Z,95462.3
2019-04-16T15:43:21.835Z,95461.5
2019-04-16T15:44:25.494Z,95462.9
2019-04-16T15:47:37.618Z,95462.9
2019-04-16T15:48:39.761Z,95464.6
2019-04-16T15:49:42.267Z,95465.1
2019-04-16T15:50:44.686Z,95465.9
2019-04-16T15:52:52.165Z,95462.9
2019-04-16T15:53:54.586Z,95466.9
2019-04-16T15:54:57.296Z,95464.9
2019-04-16T15:56:00.040Z,95464.2
2019-04-16T15:57:02.632Z,95465.8
2019-04-16T15:59:10.101Z,95464.5
2019-04-16T16:00:12.422Z,95466.4
2019-04-16T16:01:14.862Z,95464.5
2019-04-16T16:02:17.015Z,95464.2
2019-04-16T16:03:19.185Z,95466.6
2019-04-16T16:05:26.604Z,95467.8
2019-04-16T16:06:28.748Z,95464.3
2019-04-16T16:07:30.884Z,95462.8
2019-04-16T16:12:55.879Z,95470.9
2019-04-16T16:17:13.653Z,95471.8
2019-04-16T16:18:16.075Z,95472.5
2019-04-16T16:19:18.230Z,95471.7
2019-04-16T16:20:20.648Z,95473.4
2019-04-16T16:21:23.065Z,95475.2
2019-04-16T16:22:25.503Z,95470.9
2019-04-16T16:26:43.935Z,95473.5
2019-04-16T16:28:51.348Z,95476.2
2019-04-16T16:29:53.491Z,95478.2
2019-04-16T16:30:56.389Z,95475.8
2019-04-16T16:31:58.957Z,95476
2019-04-16T16:33:01.413Z,95475.8
2019-04-16T16:34:03.861Z,95480.3
2019-04-16T16:35:10.488Z,95476.2
2019-04-16T16:36:12.916Z,95477.4
2019-04-16T16:37:15.352Z,95477.5
2019-04-16T16:39:22.992Z,95479.2
2019-04-16T16:40:24.596Z,95477.5
2019-04-16T16:41:27.036Z,95483